Time;durP1;ratioP1;P1;durP2;ratioP2;P2;SDS_P1;SDS_P2;PMS_P1;PMS_P2;Temp;Humidity;BMP_temperature;BMP_pressure;BME280_temperature;BME280_humidity;BME280_pressure;Samples;Min_cycle;Max_cycle;Signal;HPM_P1;HPM_P2
2022/07/24 00:00:12;;;;;;;;;20.25;18.00;;;;;24.05;53.53;101858.44;2364711;28;46518;-92
2022/07/24 00:01:22;;;;;;;;;16.75;16.00;;;;;24.02;53.51;101854.16;2365552;29;45210;-89
2022/07/24 00:02:33;;;;;;;;;15.25;15.25;;;;;24.00;53.38;101856.06;2356204;29;46984;-88
2022/07/24 00:03:43;;;;;;;;;19.00;17.25;;;;;23.97;53.46;101853.63;2358563;29;45210;-87
2022/07/24 00:04:56;;;;;;;;;15.00;13.25;;;;;23.94;53.58;101862.78;2355146;29;48045;-88
2022/07/24 00:06:06;;;;;;;;;16.00;15.75;;;;;23.90;53.46;101863.13;2358484;29;44840;-88
2022/07/24 00:07:17;;;;;;;;;19.00;16.25;;;;;23.87;53.58;101866.88;2365810;29;46575;-89
2022/07/24 00:08:27;;;;;;;;;14.75;13.50;;;;;23.87;53.19;101861.50;2362402;29;44736;-88
2022/07/24 00:09:38;;;;;;;;;18.25;15.50;;;;;23.89;53.81;101864.06;2362118;29;47010;-88
2022/07/24 00:10:48;;;;;;;;;21.25;18.00;;;;;23.89;53.76;101866.75;2357889;29;45337;-87
2022/07/24 00:11:59;;;;;;;;;17.75;17.75;;;;;23.89;53.59;101856.00;2365586;29;46542;-88
2022/07/24 00:13:09;;;;;;;;;17.75;14.00;;;;;23.89;53.22;101862.25;2365428;29;45296;-88
2022/07/24 00:14:19;;;;;;;;;20.75;15.75;;;;;23.88;53.63;101863.19;2374467;28;48227;-88
2022/07/24 00:15:30;;;;;;;;;17.25;17.25;;;;;23.88;53.57;101863.19;2370683;28;45172;-88
2022/07/24 00:16:41;;;;;;;;;20.50;16.75;;;;;23.85;53.61;101865.28;2365952;29;46471;-87
2022/07/24 00:17:51;;;;;;;;;18.00;16.00;;;;;23.85;53.68;101868.81;2366267;29;45159;-88
2022/07/24 00:19:01;;;;;;;;;18.00;16.50;;;;;23.82;53.61;101864.53;2365967;29;46780;-88
2022/07/24 00:20:12;;;;;;;;;20.25;18.00;;;;;23.81;53.60;101873.53;2365393;29;45273;-87
2022/07/24 00:21:22;;;;;;;;;17.25;15.75;;;;;23.79;53.27;101867.44;2355462;29;47033;-87
2022/07/24 00:22:33;;;;;;;;;13.25;13.25;;;;;23.79;53.29;101866.56;2355991;29;45318;-87
2022/07/24 00:23:43;;;;;;;;;18.75;16.50;;;;;23.78;53.52;101868.38;2349002;29;48059;-87
2022/07/24 00:24:54;;;;;;;;;17.25;15.50;;;;;23.77;53.89;101877.41;2361711;28;45318;-87
2022/07/24 00:26:04;;;;;;;;;15.25;15.25;;;;;23.78;54.00;101873.75;2372319;28;45284;-87
2022/07/24 00:27:15;;;;;;;;;15.75;14.00;;;;;23.80;53.59;101868.28;2366037;29;45253;-86
2022/07/24 00:28:25;;;;;;;;;16.25;15.75;;;;;23.80;53.57;101866.47;2374327;28;47171;-87
2022/07/24 00:29:36;;;;;;;;;13.75;12.75;;;;;23.82;54.15;101864.53;2372356;28;45192;-86
2022/07/24 00:30:46;;;;;;;;;15.50;14.75;;;;;23.83;54.17;101863.53;2364835;29;46272;-87
2022/07/24 00:31:56;;;;;;;;;19.25;16.50;;;;;23.86;53.21;101865.16;2365748;29;45250;-87
2022/07/24 00:33:07;;;;;;;;;19.00;17.50;;;;;23.83;53.90;101863.53;2366015;29;46498;-87
2022/07/24 00:34:17;;;;;;;;;17.75;17.50;;;;;23.82;53.67;101859.16;2366041;29;45313;-87
2022/07/24 00:35:28;;;;;;;;;23.75;19.75;;;;;23.79;53.56;101856.69;2354380;29;46363;-86
2022/07/24 00:36:38;;;;;;;;;23.00;16.50;;;;;23.80;53.76;101855.72;2367979;28;45290;-87
2022/07/24 00:37:48;;;;;;;;;17.50;16.00;;;;;23.80;53.83;101858.41;2364501;28;48268;-87
2022/07/24 00:38:59;;;;;;;;;16.50;14.25;;;;;23.81;54.04;101857.44;2347262;29;44775;-90
2022/07/24 00:40:09;;;;;;;;;18.00;16.25;;;;;23.79;53.97;101856.69;2350278;29;47260;-85
2022/07/24 00:41:20;;;;;;;;;19.50;15.25;;;;;23.79;54.17;101848.63;2359035;29;45402;-86
2022/07/24 00:42:30;;;;;;;;;18.00;15.00;;;;;23.79;54.16;101842.41;2353458;29;47802;-86
2022/07/24 00:44:05;;;;;;;;;15.50;15.50;;;;;23.77;53.89;101833.59;2355510;29;45308;-86
2022/07/24 00:45:15;;;;;;;;;19.00;16.00;;;;;23.78;54.12;101840.72;2353344;29;48093;-86
2022/07/24 00:46:26;;;;;;;;;19.25;18.00;;;;;23.77;54.48;101836.28;2359264;29;45274;-86
2022/07/24 00:47:36;;;;;;;;;14.50;13.75;;;;;23.76;54.40;101837.25;2365231;29;45259;-87
2022/07/24 00:48:47;;;;;;;;;18.75;17.00;;;;;23.75;54.14;101840.91;2366117;29;45550;-88
2022/07/24 00:49:57;;;;;;;;;12.75;11.50;;;;;23.74;54.59;101832.00;2359995;28;46456;-84
2022/07/24 00:51:08;;;;;;;;;19.75;17.25;;;;;23.75;54.57;101830.19;2366082;29;45213;-85
2022/07/24 00:52:18;;;;;;;;;16.00;15.00;;;;;23.73;54.35;101827.59;2361182;28;46875;-85
2022/07/24 00:53:29;;;;;;;;;19.00;18.75;;;;;23.72;54.57;101831.25;2355935;29;45201;-84
2022/07/24 00:54:40;;;;;;;;;16.25;14.50;;;;;23.69;54.97;101823.44;2347236;29;48694;-84
2022/07/24 00:55:50;;;;;;;;;15.00;14.00;;;;;23.66;54.27;101821.81;2356194;29;45531;-85
2022/07/24 00:57:01;;;;;;;;;14.50;13.75;;;;;23.65;54.66;101817.44;2355878;29;48056;-84
2022/07/24 00:58:12;;;;;;;;;19.25;14.25;;;;;23.63;54.64;101815.84;2358931;29;45272;-84
2022/07/24 00:59:23;;;;;;;;;16.75;16.25;;;;;23.63;54.98;101824.72;2365693;29;45298;-84
2022/07/24 01:00:34;;;;;;;;;18.00;16.00;;;;;23.62;54.65;101819.47;2365019;29;45226;-84
2022/07/24 01:01:44;;;;;;;;;17.50;14.75;;;;;23.58;54.67;101819.69;2365600;29;46447;-85
2022/07/24 01:02:56;;;;;;;;;17.00;12.75;;;;;23.56;55.02;101821.63;2355743;29;45223;-87
2022/07/24 01:04:07;;;;;;;;;16.00;16.00;;;;;23.55;54.19;101819.94;2348912;29;47968;-83
2022/07/24 01:05:18;;;;;;;;;15.75;13.50;;;;;23.53;54.36;101821.88;2357513;29;45258;-84
2022/07/24 01:06:29;;;;;;;;;20.25;17.50;;;;;23.49;54.56;101812.31;2365101;28;45389;-84
2022/07/24 01:07:40;;;;;;;;;15.00;15.00;;;;;23.47;55.19;101811.53;2365032;29;45188;-84
2022/07/24 01:08:51;;;;;;;;;16.00;16.00;;;;;23.46;54.67;101810.66;2352236;29;47161;-84
2022/07/24 01:10:03;;;;;;;;;18.75;17.75;;;;;23.46;54.57;101807.97;2358064;29;44796;-84
2022/07/24 01:11:13;;;;;;;;;18.00;16.75;;;;;23.44;54.20;101811.75;2355779;29;47085;-88
2022/07/24 01:12:23;;;;;;;;;18.50;16.50;;;;;23.43;54.30;101816.28;2352987;29;45196;-85
2022/07/24 01:13:35;;;;;;;;;17.00;16.50;;;;;23.44;54.43;101817.09;2364868;29;48189;-83
2022/07/24 01:14:45;;;;;;;;;15.25;14.25;;;;;23.43;54.61;101808.22;2364392;29;45324;-83
2022/07/24 01:15:57;;;;;;;;;15.00;15.00;;;;;23.45;54.60;101808.97;2365797;28;46055;-85
2022/07/24 01:17:07;;;;;;;;;14.00;10.00;;;;;23.43;54.22;101804.69;2370766;28;45339;-89
2022/07/24 01:18:18;;;;;;;;;16.50;14.00;;;;;23.40;54.66;101812.94;2364909;29;47140;-89
2022/07/24 01:19:28;;;;;;;;;21.75;17.25;;;;;23.42;54.75;101819.03;2354151;29;45247;-89
2022/07/24 01:20:39;;;;;;;;;15.00;15.00;;;;;23.40;54.66;101827.22;2348636;29;47867;-89
2022/07/24 01:21:51;;;;;;;;;16.75;15.00;;;;;23.38;54.42;101827.31;2358559;29;45427;-89
2022/07/24 01:23:02;;;;;;;;;18.25;13.00;;;;;23.38;55.45;101824.63;2363839;28;47168;-89
2022/07/24 01:24:12;;;;;;;;;20.50;17.25;;;;;23.37;54.76;101827.41;2365371;29;44712;-88
2022/07/24 01:25:23;;;;;;;;;19.75;16.00;;;;;23.34;54.74;101822.25;2362858;29;45360;-88
2022/07/24 01:26:33;;;;;;;;;17.75;15.75;;;;;23.34;54.61;101831.19;2364628;29;45169;-89
2022/07/24 01:27:43;;;;;;;;;14.00;14.00;;;;;23.31;54.45;101830.56;2362687;29;46630;-88
2022/07/24 01:28:54;;;;;;;;;14.50;13.00;;;;;23.28;54.48;101828.94;2372842;28;44614;-88
2022/07/24 01:30:05;;;;;;;;;14.25;12.75;;;;;23.25;54.93;101834.50;2352752;29;47229;-88
2022/07/24 01:31:15;;;;;;;;;17.00;14.00;;;;;23.19;54.48;101834.97;2358382;29;45244;-88
2022/07/24 01:32:26;;;;;;;;;16.25;15.00;;;;;23.17;55.11;101832.38;2364666;28;47655;-88
2022/07/24 01:33:36;;;;;;;;;20.75;15.50;;;;;23.18;55.23;101830.53;2355957;29;45238;-89
2022/07/24 01:34:46;;;;;;;;;17.25;17.25;;;;;23.17;55.45;101832.38;2355487;29;47224;-87
2022/07/24 01:35:57;;;;;;;;;16.25;15.75;;;;;23.18;55.54;101828.72;2356521;29;45448;-89
2022/07/24 01:37:07;;;;;;;;;16.00;13.75;;;;;23.19;55.47;101830.44;2355638;29;47308;-89
2022/07/24 01:38:18;;;;;;;;;18.25;16.00;;;;;23.19;55.38;101834.97;2355658;29;44705;-89
2022/07/24 01:39:28;;;;;;;;;20.00;16.25;;;;;23.16;55.42;101831.50;2349000;29;47528;-88
2022/07/24 01:40:39;;;;;;;;;19.25;16.50;;;;;23.15;55.45;101832.47;2348583;29;45378;-88
2022/07/24 01:41:49;;;;;;;;;16.00;15.00;;;;;23.13;55.57;101836.22;2356685;29;47310;-89
2022/07/24 01:43:00;;;;;;;;;14.75;14.00;;;;;23.12;55.33;101824.66;2364831;28;45136;-90
2022/07/24 01:44:11;;;;;;;;;17.25;15.25;;;;;23.12;55.26;101830.00;2355157;29;46872;-89
2022/07/24 01:45:21;;;;;;;;;15.75;15.25;;;;;23.13;54.93;101826.38;2356091;29;45532;-90
2022/07/24 01:46:32;;;;;;;;;13.75;13.25;;;;;23.11;55.55;101825.59;2355640;29;47038;-90
2022/07/24 01:47:43;;;;;;;;;16.50;16.25;;;;;23.12;55.06;101826.47;2355659;29;45444;-90
2022/07/24 01:48:53;;;;;;;;;14.25;14.25;;;;;23.12;56.06;101827.31;2352881;29;45773;-91
2022/07/24 01:50:04;;;;;;;;;13.25;11.75;;;;;23.12;56.02;101826.47;2354081;29;45287;-90
2022/07/24 01:51:14;;;;;;;;;20.50;15.25;;;;;23.12;55.89;101827.31;2358384;29;45269;-90
2022/07/24 01:52:25;;;;;;;;;14.75;14.25;;;;;23.10;55.45;101821.22;2363620;29;44627;-90
2022/07/24 01:53:35;;;;;;;;;16.25;15.25;;;;;23.10;56.08;101831.06;2348917;29;48123;-88
2022/07/24 01:54:46;;;;;;;;;16.75;15.75;;;;;23.08;55.83;101824.97;2347718;29;44633;-88
2022/07/24 01:55:56;;;;;;;;;16.00;16.00;;;;;23.07;55.64;101825.91;2365671;28;48086;-84
2022/07/24 01:57:07;;;;;;;;;14.25;14.25;;;;;23.04;55.90;101819.81;2371942;28;45233;-82
2022/07/24 01:58:17;;;;;;;;;15.25;14.50;;;;;23.03;56.03;101825.28;2365388;29;45357;-82
2022/07/24 01:59:27;;;;;;;;;17.25;17.25;;;;;22.99;55.62;101823.78;2355643;29;45230;-85
2022/07/24 02:00:38;;;;;;;;;17.25;16.25;;;;;22.98;56.13;101820.25;2354513;29;47805;-86
2022/07/24 02:01:48;;;;;;;;;19.25;17.00;;;;;22.96;56.01;101819.50;2356044;29;45547;-87
2022/07/24 02:02:59;;;;;;;;;23.00;15.75;;;;;22.94;56.13;101821.41;2370922;28;46935;-86
2022/07/24 02:04:09;;;;;;;;;14.00;14.00;;;;;22.91;56.42;101819.81;2370898;28;45452;-83
2022/07/24 02:05:19;;;;;;;;;20.50;17.25;;;;;22.90;56.19;101818.09;2363153;29;45943;-84
2022/07/24 02:06:30;;;;;;;;;20.50;13.25;;;;;22.86;56.32;101813.06;2363989;29;45587;-91
2022/07/24 02:07:41;;;;;;;;;18.50;15.25;;;;;22.86;55.93;101813.91;2365160;29;47615;-87
2022/07/24 02:08:52;;;;;;;;;19.00;16.50;;;;;22.83;56.39;101816.81;2355557;29;45341;-87
2022/07/24 02:10:02;;;;;;;;;18.25;15.00;;;;;22.81;56.45;101816.06;2366891;28;47163;-87
2022/07/24 02:11:13;;;;;;;;;15.00;13.75;;;;;22.79;56.55;101816.13;2370644;28;45343;-87
2022/07/24 02:12:23;;;;;;;;;13.00;12.00;;;;;22.79;56.24;101812.63;2364426;28;46904;-86
2022/07/24 02:13:33;;;;;;;;;17.50;17.50;;;;;22.73;56.60;101813.91;2365100;29;45321;-86
2022/07/24 02:14:44;;;;;;;;;15.50;15.50;;;;;22.73;56.76;101810.34;2363865;29;45688;-87
2022/07/24 02:15:54;;;;;;;;;18.75;16.25;;;;;22.72;56.88;101814.00;2363122;29;45401;-87
2022/07/24 02:17:05;;;;;;;;;18.00;16.75;;;;;22.69;56.68;101815.91;2364645;29;46283;-87
2022/07/24 02:18:15;;;;;;;;;18.00;15.75;;;;;22.66;56.80;101815.25;2364300;29;45170;-85
2022/07/24 02:19:25;;;;;;;;;19.00;15.50;;;;;22.66;56.82;101816.09;2355237;29;47232;-86
2022/07/24 02:20:36;;;;;;;;;19.25;15.75;;;;;22.65;56.42;101811.69;2349014;29;45251;-86
2022/07/24 02:21:46;;;;;;;;;19.50;17.75;;;;;22.64;56.32;101811.81;2357355;29;48100;-86
2022/07/24 02:22:56;;;;;;;;;19.50;15.25;;;;;22.63;57.18;101812.75;2355641;29;44733;-85
2022/07/24 02:24:07;;;;;;;;;16.50;15.25;;;;;22.62;57.36;101811.91;2348760;29;46868;-86
2022/07/24 02:25:17;;;;;;;;;15.25;15.25;;;;;22.60;56.67;101805.78;2356807;29;45394;-85
2022/07/24 02:26:28;;;;;;;;;16.75;15.50;;;;;22.58;56.81;101802.38;2365489;29;45415;-85
2022/07/24 02:27:39;;;;;;;;;18.50;17.50;;;;;22.56;56.64;101806.97;2355402;29;44763;-85
2022/07/24 02:28:49;;;;;;;;;18.50;15.75;;;;;22.55;56.84;101816.81;2358009;29;45603;-87
2022/07/24 02:30:00;;;;;;;;;17.50;14.75;;;;;22.55;56.96;101815.97;2364416;29;45340;-87
2022/07/24 02:31:10;;;;;;;;;16.50;15.00;;;;;22.55;57.29;101805.25;2361364;29;47208;-86
2022/07/24 02:32:21;;;;;;;;;16.50;16.50;;;;;22.56;57.25;101806.97;2359882;28;45168;-86
2022/07/24 02:33:31;;;;;;;;;17.00;15.00;;;;;22.55;56.74;101810.59;2366926;29;46161;-86
2022/07/24 02:34:41;;;;;;;;;17.25;16.50;;;;;22.54;57.23;101804.41;2366901;29;44740;-86
2022/07/24 02:35:51;;;;;;;;;17.00;17.00;;;;;22.53;57.05;101799.13;2363493;28;46272;-86
2022/07/24 02:37:02;;;;;;;;;15.75;15.25;;;;;22.53;56.93;101796.47;2357045;29;45193;-85
2022/07/24 02:38:12;;;;;;;;;19.25;17.00;;;;;22.54;57.33;101804.41;2359641;29;45245;-86
2022/07/24 02:39:22;;;;;;;;;18.00;15.25;;;;;22.55;58.02;101794.53;2366665;29;45431;-86
2022/07/24 02:40:33;;;;;;;;;13.00;13.00;;;;;22.54;57.63;101788.34;2365323;29;46987;-86
2022/07/24 02:41:43;;;;;;;;;17.25;15.50;;;;;22.52;57.07;101794.75;2366375;29;45289;-86
2022/07/24 02:42:53;;;;;;;;;20.25;19.25;;;;;22.49;57.71;101791.28;2365967;28;46988;-86
2022/07/24 02:44:04;;;;;;;;;19.25;16.75;;;;;22.47;57.26;101793.22;2356973;29;45322;-87
2022/07/24 02:45:14;;;;;;;;;18.00;16.50;;;;;22.47;57.35;101787.03;2357024;28;46541;-87
2022/07/24 02:46:25;;;;;;;;;17.25;13.50;;;;;22.44;57.18;101785.41;2348214;29;45441;-86
2022/07/24 02:47:45;;;;;;;;;18.75;17.25;;;;;22.44;57.51;101787.22;2364293;28;46963;-86
2022/07/24 02:48:55;;;;;;;;;20.00;16.00;;;;;22.43;57.63;101781.00;2370277;28;44751;-84
2022/07/24 02:50:06;;;;;;;;;16.25;16.25;;;;;22.43;57.63;101786.38;2347362;29;47172;-85
2022/07/24 02:51:16;;;;;;;;;13.75;10.50;;;;;22.42;57.78;101781.97;2341321;29;44858;-89
2022/07/24 02:52:27;;;;;;;;;15.50;15.50;;;;;22.41;57.50;101776.72;2342149;29;47847;-90
2022/07/24 02:53:38;;;;;;;;;22.00;16.00;;;;;22.40;57.81;101775.03;2359955;29;45320;-90
2022/07/24 02:54:48;;;;;;;;;19.00;16.25;;;;;22.37;57.28;101773.41;2356054;29;47243;-89
2022/07/24 02:55:59;;;;;;;;;18.75;18.75;;;;;22.35;57.73;101781.53;2358022;29;45285;-90
2022/07/24 02:57:09;;;;;;;;;17.25;16.50;;;;;22.34;57.83;101768.25;2366607;29;45296;-90
2022/07/24 02:58:19;;;;;;;;;21.50;18.25;;;;;22.32;58.04;101773.69;2356906;29;45404;-89
2022/07/24 02:59:29;;;;;;;;;21.75;18.00;;;;;22.30;58.05;101769.44;2359603;29;45357;-85
2022/07/24 03:00:40;;;;;;;;;18.25;17.50;;;;;22.27;57.94;101773.16;2366580;29;44679;-86
2022/07/24 03:01:50;;;;;;;;;20.00;16.75;;;;;22.26;57.98;101771.44;2356366;29;48259;-86
2022/07/24 03:03:01;;;;;;;;;24.25;18.00;;;;;22.23;57.80;101769.81;2349447;29;45268;-86
2022/07/24 03:04:11;;;;;;;;;19.25;15.75;;;;;22.21;58.32;101761.03;2359255;29;47331;-87
2022/07/24 03:05:22;;;;;;;;;20.00;17.25;;;;;22.21;58.29;101769.06;2364587;28;45152;-87
2022/07/24 03:06:32;;;;;;;;;20.25;15.50;;;;;22.20;58.11;101764.66;2355617;29;47806;-87
2022/07/24 03:07:43;;;;;;;;;16.50;16.50;;;;;22.20;57.70;101766.50;2368187;28;45278;-87
2022/07/24 03:08:53;;;;;;;;;19.75;16.75;;;;;22.21;57.99;101760.16;2354817;29;48115;-89
2022/07/24 03:10:05;;;;;;;;;20.75;19.00;;;;;22.18;58.43;101768.41;2358583;29;45296;-89
2022/07/24 03:11:16;;;;;;;;;19.50;17.25;;;;;22.17;58.22;101756.84;2365292;28;45497;-88
2022/07/24 03:12:26;;;;;;;;;19.00;16.50;;;;;22.18;58.18;101758.56;2356506;29;45283;-89
2022/07/24 03:13:36;;;;;;;;;17.00;14.75;;;;;22.17;58.45;101753.31;2359687;29;45301;-85
2022/07/24 03:14:47;;;;;;;;;15.00;14.25;;;;;22.12;58.58;101751.81;2366283;29;45541;-86
2022/07/24 03:15:57;;;;;;;;;17.75;14.25;;;;;22.13;58.56;101763.34;2365075;28;45317;-86
2022/07/24 03:17:07;;;;;;;;;19.50;16.50;;;;;22.11;58.16;101759.94;2366610;29;45167;-86
2022/07/24 03:18:18;;;;;;;;;17.00;15.75;;;;;22.10;58.13;101763.59;2366634;29;45324;-86
2022/07/24 03:19:28;;;;;;;;;20.50;16.50;;;;;22.09;58.51;101761.84;2366688;29;45244;-86
2022/07/24 03:20:38;;;;;;;;;15.00;14.50;;;;;22.07;58.43;101761.97;2364957;29;48080;-86
2022/07/24 03:21:49;;;;;;;;;19.25;16.75;;;;;22.03;58.50;101758.63;2365549;29;44784;-86
2022/07/24 03:22:59;;;;;;;;;17.25;15.25;;;;;22.02;58.16;101761.41;2361110;28;47202;-86
2022/07/24 03:24:10;;;;;;;;;18.00;14.50;;;;;22.01;59.04;101759.69;2357243;29;45297;-89
2022/07/24 03:25:20;;;;;;;;;17.75;17.00;;;;;22.01;58.59;101757.00;2354055;29;48049;-88
2022/07/24 03:26:31;;;;;;;;;17.50;15.00;;;;;22.01;58.79;101754.31;2356369;29;45284;-89
2022/07/24 03:27:41;;;;;;;;;17.75;16.25;;;;;22.00;58.98;101758.81;2358974;29;47010;-89
2022/07/24 03:28:52;;;;;;;;;17.50;16.50;;;;;21.99;58.78;101757.13;2365702;29;45380;-87
2022/07/24 03:30:04;;;;;;;;;17.25;15.50;;;;;22.00;59.30;101757.97;2356150;29;47939;-85
2022/07/24 03:31:14;;;;;;;;;21.50;19.75;;;;;21.99;59.13;101750.91;2350438;29;45243;-85
2022/07/24 03:32:25;;;;;;;;;19.00;17.00;;;;;21.98;58.94;101760.72;2365535;29;48258;-85
2022/07/24 03:33:35;;;;;;;;;19.75;19.75;;;;;21.97;58.84;101755.50;2370765;28;45298;-86
2022/07/24 03:34:46;;;;;;;;;17.50;16.50;;;;;21.95;58.82;101758.28;2366228;29;45269;-89
2022/07/24 03:35:56;;;;;;;;;20.50;19.50;;;;;21.92;58.95;101758.47;2355154;29;45267;-88
2022/07/24 03:37:06;;;;;;;;;16.25;14.75;;;;;21.89;58.60;101762.22;2358764;29;45338;-89
2022/07/24 03:38:17;;;;;;;;;19.00;15.75;;;;;21.89;59.20;101756.00;2356001;29;45250;-87
2022/07/24 03:39:27;;;;;;;;;18.75;17.00;;;;;21.88;59.14;101762.28;2358937;29;47090;-87
2022/07/24 03:40:37;;;;;;;;;18.25;17.00;;;;;21.86;58.91;101765.06;2374038;28;45308;-89
2022/07/24 03:41:48;;;;;;;;;18.00;16.75;;;;;21.84;59.49;101769.66;2372663;28;45385;-87
2022/07/24 03:42:58;;;;;;;;;18.00;15.50;;;;;21.83;59.59;101767.91;2367378;28;45160;-85
2022/07/24 03:44:08;;;;;;;;;18.00;18.00;;;;;21.81;59.09;101769.84;2375615;28;46219;-85
2022/07/24 03:45:19;;;;;;;;;19.25;16.00;;;;;21.80;59.25;101768.97;2364130;28;45911;-85
2022/07/24 03:46:30;;;;;;;;;17.50;15.25;;;;;21.78;59.73;101768.22;2365564;29;48062;-85
2022/07/24 03:47:40;;;;;;;;;18.25;18.25;;;;;21.79;59.64;101763.72;2358978;29;45395;-85
2022/07/24 03:48:50;;;;;;;;;19.50;18.75;;;;;21.79;59.33;101766.41;2356396;29;47458;-86
2022/07/24 03:50:02;;;;;;;;;21.25;19.00;;;;;21.76;59.57;101764.78;2359407;29;45433;-88
2022/07/24 03:51:12;;;;;;;;;17.50;17.00;;;;;21.75;59.52;101765.75;2364137;29;47942;-89
2022/07/24 03:52:23;;;;;;;;;15.25;14.75;;;;;21.73;59.48;101772.16;2365907;29;45232;-88
2022/07/24 03:53:33;;;;;;;;;16.75;15.25;;;;;21.70;59.72;101763.34;2365222;28;45339;-87
2022/07/24 03:54:43;;;;;;;;;21.50;17.00;;;;;21.70;59.54;101771.38;2361117;29;45333;-88
2022/07/24 03:55:54;;;;;;;;;19.00;18.00;;;;;21.69;59.84;101766.13;2353568;29;46004;-88
2022/07/24 03:57:04;;;;;;;;;17.75;15.25;;;;;21.67;59.89;101768.94;2349242;29;45577;-88
2022/07/24 03:58:15;;;;;;;;;18.25;16.50;;;;;21.65;59.83;101776.19;2358846;29;47928;-87
2022/07/24 03:59:25;;;;;;;;;20.75;18.75;;;;;21.68;59.89;101769.78;2365950;29;45188;-87
2022/07/24 04:00:36;;;;;;;;;17.00;16.75;;;;;21.65;60.05;101767.31;2365886;29;45361;-83
2022/07/24 04:01:46;;;;;;;;;21.25;16.75;;;;;21.64;59.60;101769.13;2356085;29;45536;-83
2022/07/24 04:02:56;;;;;;;;;16.75;15.25;;;;;21.63;59.64;101772.72;2358918;28;45349;-83
2022/07/24 04:04:07;;;;;;;;;19.75;16.75;;;;;21.63;60.07;101763.88;2374846;28;45256;-83
2022/07/24 04:05:18;;;;;;;;;18.75;17.25;;;;;21.61;59.72;101758.59;2364905;28;45581;-88
2022/07/24 04:06:28;;;;;;;;;16.25;15.50;;;;;21.61;59.92;101763.13;2356212;29;45353;-87
2022/07/24 04:07:39;;;;;;;;;16.75;16.75;;;;;21.62;59.86;101765.69;2355805;29;46987;-86
2022/07/24 04:08:50;;;;;;;;;17.00;15.50;;;;;21.61;60.07;101763.94;2350575;29;45417;-83
2022/07/24 04:10:00;;;;;;;;;19.25;18.00;;;;;21.60;59.93;101762.25;2362019;29;46287;-83
2022/07/24 04:11:11;;;;;;;;;21.50;16.75;;;;;21.60;59.81;101762.25;2365653;28;45225;-83
2022/07/24 04:12:21;;;;;;;;;15.75;15.50;;;;;21.60;60.13;101764.94;2356381;29;48312;-81
2022/07/24 04:13:31;;;;;;;;;21.00;18.25;;;;;21.59;60.19;101769.41;2358320;29;45367;-85
2022/07/24 04:14:42;;;;;;;;;17.50;16.25;;;;;21.59;60.41;101765.88;2365904;29;45261;-86
2022/07/24 04:15:53;;;;;;;;;15.75;15.75;;;;;21.54;59.96;101766.16;2363695;29;45332;-85
2022/07/24 04:17:03;;;;;;;;;18.00;16.50;;;;;21.52;60.21;101768.09;2356040;29;48008;-85
2022/07/24 04:18:14;;;;;;;;;18.75;17.00;;;;;21.51;60.63;101769.03;2349894;29;45190;-86
2022/07/24 04:19:24;;;;;;;;;20.00;16.25;;;;;21.50;60.48;101772.69;2349546;29;46968;-87
2022/07/24 04:20:35;;;;;;;;;19.50;17.75;;;;;21.47;60.40;101767.53;2349764;29;45172;-94
2022/07/24 04:21:45;;;;;;;;;18.75;17.00;;;;;21.45;60.73;101764.94;2359412;29;45210;-84
2022/07/24 04:22:55;;;;;;;;;17.25;16.50;;;;;21.45;60.47;101770.31;2374399;28;44683;-93
2022/07/24 04:24:06;;;;;;;;;20.00;18.25;;;;;21.46;60.72;101772.00;2363084;29;47063;-93
2022/07/24 04:25:16;;;;;;;;;20.00;18.00;;;;;21.45;60.81;101772.97;2364155;29;44727;-93
2022/07/24 04:26:27;;;;;;;;;19.50;18.25;;;;;21.43;60.27;101771.34;2371209;28;45991;-86
2022/07/24 04:27:37;;;;;;;;;22.25;17.25;;;;;21.42;60.41;101778.50;2365465;29;45446;-88
2022/07/24 04:28:47;;;;;;;;;21.75;15.50;;;;;21.43;60.83;101774.03;2365983;29;45354;-87
2022/07/24 04:29:58;;;;;;;;;16.50;14.75;;;;;21.43;60.80;101771.34;2365143;29;45432;-88
2022/07/24 04:31:08;;;;;;;;;19.25;18.75;;;;;21.43;60.36;101771.34;2355904;29;48004;-89
2022/07/24 04:32:19;;;;;;;;;22.00;18.50;;;;;21.42;60.36;101769.63;2358781;29;44730;-88
2022/07/24 04:33:29;;;;;;;;;19.00;15.00;;;;;21.43;60.68;101774.03;2353828;29;47284;-89
2022/07/24 04:34:39;;;;;;;;;19.25;17.75;;;;;21.44;60.78;101775.72;2358274;28;45450;-90
2022/07/24 04:35:50;;;;;;;;;19.25;18.50;;;;;21.43;60.66;101769.53;2364033;28;46354;-88
2022/07/24 04:37:00;;;;;;;;;18.75;17.00;;;;;21.42;60.69;101767.81;2365383;29;45328;-88
2022/07/24 04:38:10;;;;;;;;;18.50;16.75;;;;;21.43;60.33;101771.34;2364981;28;45343;-89
2022/07/24 04:39:21;;;;;;;;;20.25;16.25;;;;;21.44;60.28;101773.06;2356212;29;45264;-86
2022/07/24 04:40:31;;;;;;;;;18.25;17.25;;;;;21.42;60.57;101769.63;2358962;29;46337;-86
2022/07/24 04:41:41;;;;;;;;;18.75;18.25;;;;;21.41;60.49;101773.28;2365955;29;45264;-86
2022/07/24 04:42:52;;;;;;;;;17.75;15.25;;;;;21.40;60.95;101776.88;2365021;28;47140;-86
2022/07/24 04:44:02;;;;;;;;;18.50;16.00;;;;;21.39;60.53;101781.38;2365438;29;45192;-86
2022/07/24 04:45:13;;;;;;;;;17.75;16.00;;;;;21.36;60.88;101768.19;2364442;29;45257;-87
2022/07/24 04:46:23;;;;;;;;;17.00;17.00;;;;;21.36;60.62;101774.41;2365032;29;45291;-85
2022/07/24 04:47:34;;;;;;;;;15.00;14.75;;;;;21.37;60.76;101777.94;2355866;29;47116;-84
2022/07/24 04:48:45;;;;;;;;;19.00;16.25;;;;;21.39;60.54;101775.16;2358395;29;44655;-84
2022/07/24 04:49:55;;;;;;;;;22.50;17.25;;;;;21.38;60.79;101773.47;2354142;29;48009;-84
2022/07/24 04:51:06;;;;;;;;;17.00;15.75;;;;;21.39;60.88;101773.34;2347014;29;45460;-84
2022/07/24 04:52:16;;;;;;;;;16.50;16.50;;;;;21.38;60.44;101768.97;2356389;29;46117;-85
2022/07/24 04:53:30;;;;;;;;;21.50;17.75;;;;;21.39;60.78;101769.81;2370117;28;45522;-85
2022/07/24 04:54:40;;;;;;;;;17.75;17.00;;;;;21.39;60.88;101770.66;2370526;28;46243;-84
2022/07/24 04:55:51;;;;;;;;;16.75;15.50;;;;;21.39;60.75;101772.47;2361895;29;45510;-84
2022/07/24 04:57:01;;;;;;;;;17.75;16.50;;;;;21.39;60.36;101768.00;2355937;29;46382;-83
2022/07/24 04:58:12;;;;;;;;;17.50;17.00;;;;;21.40;60.65;101767.06;2358036;29;45528;-83
2022/07/24 04:59:22;;;;;;;;;20.00;19.25;;;;;21.39;60.47;101767.13;2365759;29;45549;-83
2022/07/24 05:00:32;;;;;;;;;16.25;13.75;;;;;21.39;60.44;101769.81;2365873;29;45222;-83
2022/07/24 05:01:43;;;;;;;;;15.50;14.25;;;;;21.41;60.64;101774.09;2364426;29;45563;-84
2022/07/24 05:02:53;;;;;;;;;15.50;14.25;;;;;21.42;60.68;101767.81;2372235;28;45265;-83
2022/07/24 05:04:04;;;;;;;;;19.00;16.25;;;;;21.46;60.90;101766.66;2362176;29;48189;-84
2022/07/24 05:05:15;;;;;;;;;13.00;13.00;;;;;21.50;60.60;101770.00;2357784;29;45149;-83
2022/07/24 05:06:25;;;;;;;;;15.75;14.25;;;;;21.54;60.52;101766.16;2365269;29;46531;-83
2022/07/24 05:07:36;;;;;;;;;16.50;15.00;;;;;21.57;60.61;101759.78;2374183;28;45225;-84
2022/07/24 05:08:46;;;;;;;;;15.00;13.75;;;;;21.59;60.23;101765.88;2371303;28;45344;-84
2022/07/24 05:09:57;;;;;;;;;16.00;16.00;;;;;21.63;60.10;101767.38;2365635;29;45209;-84
2022/07/24 05:11:07;;;;;;;;;13.75;12.75;;;;;21.63;60.58;101767.38;2348129;29;47382;-84
2022/07/24 05:12:18;;;;;;;;;19.25;17.25;;;;;21.67;60.28;101770.75;2354559;29;45320;-84
2022/07/24 05:13:28;;;;;;;;;11.50;10.50;;;;;21.69;59.63;101771.50;2363902;28;46779;-83
2022/07/24 05:14:38;;;;;;;;;15.00;13.75;;;;;21.71;59.96;101766.91;2355607;29;45378;-83
2022/07/24 05:15:49;;;;;;;;;16.50;14.50;;;;;21.74;60.29;101763.16;2358103;29;45334;-83
2022/07/24 05:16:59;;;;;;;;;15.50;15.25;;;;;21.76;59.90;101759.44;2365707;29;45366;-81
2022/07/24 05:18:10;;;;;;;;;17.00;15.75;;;;;21.79;59.78;101763.72;2373238;28;46920;-84
2022/07/24 05:19:20;;;;;;;;;16.75;15.25;;;;;21.84;59.50;101766.97;2362451;29;45255;-83
2022/07/24 05:20:30;;;;;;;;;21.75;17.50;;;;;21.86;59.28;101774.88;2358783;29;45637;-83